createdAt,value
2018-08-20T03:38:13.084Z,69.62
2018-08-20T03:41:05.691Z,69.94
2018-08-20T03:43:40.280Z,69.99
2018-08-20T03:47:04.009Z,70.03
2018-08-20T03:49:56.248Z,70.55
2018-08-20T03:52:38.250Z,70.85
2018-08-20T03:55:08.418Z,71.24
2018-08-20T04:01:54.664Z,72.08
2018-08-20T04:04:30.433Z,72.33
2018-08-20T04:07:11.104Z,72.49
2018-08-20T04:22:51.103Z,72.50
2018-08-20T04:25:29.981Z,72.76
2018-08-20T04:28:00.013Z,73.75
2018-08-20T04:33:23.844Z,73.48
2018-08-20T04:35:54.027Z,74.30
2018-08-20T04:54:22.061Z,74.96
2018-08-20T04:57:08.078Z,74.91
2018-08-20T05:08:37.324Z,74.50
2018-08-20T05:17:05.386Z,74.50
2018-08-20T05:19:39.736Z,74.47
2018-08-20T06:44:51.979Z,60.83
2018-08-20T06:53:40.568Z,58.86
2018-08-20T06:56:28.603Z,58.54
2018-08-20T07:20:22.155Z,54.13
2018-08-20T07:59:03.343Z,48.82
2018-08-20T08:01:34.429Z,47.95
2018-08-20T08:10:19.549Z,41.90
2018-08-20T08:12:50.848Z,40.21
2018-08-20T08:33:54.355Z,31.41
2018-08-20T08:36:45.855Z,31.28
2018-08-20T09:00:50.509Z,27.79
2018-08-20T09:03:22.101Z,27.77
2018-08-20T09:05:54.199Z,26.28
2018-08-20T09:11:35.130Z,26.30
2018-08-20T09:14:05.978Z,26.74
2018-08-20T09:18:49.336Z,26.93
2018-08-20T09:21:20.922Z,28.17
2018-08-20T09:23:51.490Z,27.19
2018-08-20T09:29:21.101Z,27.08
2018-08-20T09:31:51.164Z,26.69
2018-08-20T09:34:21.352Z,27.96
2018-08-20T09:36:52.539Z,27.72
2018-08-20T09:39:25.724Z,27.01
2018-08-20T09:41:55.810Z,27.80
2018-08-20T09:44:39.045Z,27.76
2018-08-20T09:47:16.256Z,27.34
2018-08-20T09:49:46.593Z,28.10
2018-08-20T09:52:16.835Z,29.60
2018-08-20T09:55:21.507Z,31.00
2018-08-20T09:57:52.066Z,31.39
2018-08-20T10:05:56.219Z,31.37
2018-08-20T10:08:36.156Z,31.68
2018-08-20T10:11:11.698Z,31.06
2018-08-20T10:13:55.351Z,30.86
2018-08-20T10:16:31.272Z,31.69
2018-08-20T10:19:07.184Z,32.02
2018-08-20T10:21:45.805Z,32.53
2018-08-20T10:24:17.460Z,32.63
2018-08-20T10:26:54.283Z,32.63
2018-08-20T10:29:26.035Z,31.30
2018-08-20T10:31:58.387Z,33.04
2018-08-20T10:38:36.384Z,32.97
2018-08-20T10:41:21.715Z,33.38
2018-08-20T10:43:53.067Z,34.76
2018-08-20T10:46:28.462Z,35.26
2018-08-20T10:48:59.031Z,34.70
2018-08-20T10:51:28.996Z,34.96
2018-08-20T10:53:59.187Z,34.63
2018-08-20T10:56:39.939Z,34.62
2018-08-20T10:59:09.852Z,36.38
2018-08-20T11:01:40.415Z,36.07
2018-08-20T11:04:10.769Z,37.09
2018-08-20T11:07:56.999Z,33.90
2018-08-20T11:10:26.731Z,35.27
2018-08-20T11:12:56.461Z,34.95
2018-08-20T11:15:33.953Z,35.09
2018-08-20T11:18:03.591Z,34.84
2018-08-20T11:20:33.400Z,36.58
2018-08-20T11:23:03.265Z,34.89
2018-08-20T11:31:24.917Z,35.53
2018-08-20T11:46:48.209Z,33.97
2018-08-20T12:13:12.462Z,35.18
2018-08-20T12:15:42.833Z,35.27
2018-08-20T12:18:15.110Z,35.99
2018-08-20T12:20:46.864Z,33.83
2018-08-20T12:23:22.758Z,34.52
2018-08-20T12:25:52.850Z,34.32
2018-08-20T12:28:25.408Z,33.98
2018-08-20T12:30:57.074Z,34.60
2018-08-20T12:33:27.815Z,34.67
2018-08-20T12:36:03.633Z,33.59
2018-08-20T12:38:33.437Z,32.97
2018-08-20T12:41:04.859Z,33.16
2018-08-20T12:43:39.783Z,33.11
2018-08-20T12:49:11.150Z,31.72
2018-08-20T12:51:46.520Z,31.34
2018-08-20T12:54:16.731Z,30.70
2018-08-20T12:56:46.724Z,32.44
2018-08-20T12:59:16.941Z,31.94
2018-08-20T13:01:47.002Z,32.57
2018-08-20T13:04:17.105Z,31.85
2018-08-20T13:09:50.514Z,33.65
2018-08-20T13:15:26.906Z,33.13
2018-08-20T13:20:54.744Z,31.19
2018-08-20T13:23:28.008Z,32.71
2018-08-20T13:25:57.837Z,31.60
2018-08-20T13:28:28.043Z,31.86
2018-08-20T13:31:01.117Z,32.19
2018-08-20T13:33:31.155Z,32.20
2018-08-20T13:36:23.261Z,31.88
2018-08-20T13:38:55.608Z,31.38
2018-08-20T13:41:26.731Z,29.09
2018-08-20T13:44:11.867Z,25.12
2018-08-20T13:46:43.480Z,25.81
2018-08-20T13:52:17.272Z,22.41
2018-08-20T13:54:48.140Z,21.64
2018-08-20T13:57:20.011Z,24.01
2018-08-20T13:59:53.402Z,21.49
2018-08-20T14:08:41.125Z,27.86
2018-08-20T14:14:27.834Z,28.01
2018-08-20T14:17:18.407Z,25.38
2018-08-20T14:19:48.456Z,21.19
2018-08-20T14:25:01.906Z,18.61
2018-08-20T14:27:32.857Z,18.77
2018-08-20T14:30:03.007Z,18.77
2018-08-20T14:36:36.441Z,19.93
2018-08-20T14:39:08.074Z,19.33
2018-08-20T14:41:39.715Z,19.59
2018-08-20T14:44:09.326Z,17.63
2018-08-20T14:46:39.939Z,22.47
2018-08-20T14:49:09.817Z,25.24
2018-08-20T14:51:39.512Z,23.48
2018-08-20T14:54:09.683Z,23.61
2018-08-20T14:56:46.118Z,22.32
2018-08-20T14:59:16.179Z,22.49
2018-08-20T15:01:45.959Z,22.25
2018-08-20T15:04:16.789Z,25.65
2018-08-20T15:06:57.623Z,26.76
2018-08-20T15:09:28.459Z,24.75
2018-08-20T15:11:58.862Z,25.16
2018-08-20T15:14:29.309Z,27.69
2018-08-20T15:16:59.367Z,29.27
2018-08-20T15:19:29.529Z,27.57
2018-08-20T15:21:59.277Z,24.80
2018-08-20T15:24:29.835Z,24.26
2018-08-20T15:27:02.881Z,24.20
2018-08-20T15:29:32.394Z,22.73
2018-08-20T15:32:02.074Z,22.21
2018-08-20T15:34:39.299Z,22.22
2018-08-20T15:37:08.858Z,22.67
2018-08-20T15:39:44.969Z,22.66
2018-08-20T15:42:14.594Z,22.36
2018-08-20T15:44:44.631Z,22.48
2018-08-20T15:47:14.501Z,21.62
2018-08-20T15:49:46.602Z,21.97
2018-08-20T15:52:16.496Z,22.29
2018-08-20T15:54:46.138Z,22.26
2018-08-20T15:57:19.416Z,21.84
2018-08-20T15:59:53.411Z,22.31
2018-08-20T16:02:22.994Z,23.22
2018-08-20T16:04:55.177Z,23.83
2018-08-20T16:07:25.126Z,24.11
2018-08-20T16:09:54.957Z,23.87
2018-08-20T16:12:25.040Z,23.65
2018-08-20T16:14:54.643Z,24.56
2018-08-20T16:17:24.662Z,25.61
2018-08-20T16:19:55.055Z,25.20
2018-08-20T16:22:25.974Z,27.18
2018-08-20T16:24:58.930Z,30.21
2018-08-20T16:27:32.333Z,33.56
2018-08-20T16:30:02.499Z,35.86
2018-08-20T16:32:32.012Z,36.06
2018-08-20T16:35:02.872Z,37.78
2018-08-20T16:37:36.078Z,37.14
2018-08-20T16:40:07.690Z,38.01
2018-08-20T16:43:02.928Z,38.40
2018-08-20T16:45:33.106Z,38.72
2018-08-20T16:48:06.316Z,39.54
2018-08-20T16:50:36.455Z,40.01
2018-08-20T16:53:06.604Z,40.11
2018-08-20T16:55:36.245Z,40.32
2018-08-20T16:58:07.362Z,40.00
2018-08-20T17:00:36.972Z,41.10
2018-08-20T17:03:24.849Z,40.74
2018-08-20T17:05:57.065Z,41.74
2018-08-20T17:08:40.255Z,41.65
2018-08-20T17:11:11.146Z,41.66
2018-08-20T17:13:41.932Z,42.61
2018-08-20T17:16:14.045Z,42.18
2018-08-20T17:18:44.434Z,42.98
2018-08-20T17:21:14.391Z,43.36
2018-08-20T17:23:45.000Z,42.67
2018-08-20T17:26:30.716Z,42.60
2018-08-20T17:29:08.443Z,43.77
2018-08-20T17:31:39.411Z,43.53
2018-08-20T17:34:53.217Z,43.67
2018-08-20T17:37:23.558Z,43.80
2018-08-20T17:40:06.669Z,44.89
2018-08-20T17:42:38.595Z,45.63
2018-08-20T17:45:11.031Z,45.04
2018-08-20T17:47:42.082Z,45.05
2018-08-20T17:53:05.146Z,44.04
2018-08-20T17:55:37.723Z,44.59
2018-08-20T17:58:23.380Z,44.65
2018-08-20T18:00:54.552Z,45.18
2018-08-20T18:03:31.216Z,45.03
2018-08-20T18:06:04.336Z,46.16
2018-08-20T18:08:36.310Z,46.05
2018-08-20T18:11:08.158Z,46.14
2018-08-20T18:13:50.281Z,46.33
2018-08-20T18:19:15.558Z,47.90
2018-08-20T18:21:46.422Z,48.98
2018-08-20T18:24:18.468Z,49.02
2018-08-20T18:26:57.636Z,49.50
2018-08-20T18:29:28.817Z,49.71
2018-08-20T18:32:01.917Z,48.69
2018-08-20T18:34:34.409Z,49.41
2018-08-20T18:37:05.326Z,49.09
2018-08-20T18:42:32.236Z,50.52
2018-08-20T18:45:03.444Z,50.14
2018-08-20T18:47:47.315Z,51.52
2018-08-20T18:50:23.899Z,52.28
2018-08-20T18:53:00.339Z,52.45
2018-08-20T18:55:33.226Z,52.28
2018-08-20T18:58:05.113Z,53.24
2018-08-20T19:03:14.398Z,53.94
2018-08-20T19:05:50.362Z,54.31
2018-08-20T19:08:30.380Z,54.42
2018-08-20T19:11:06.879Z,54.45
2018-08-20T19:13:38.296Z,55.19
2018-08-20T19:19:51.073Z,56.25
2018-08-20T19:22:29.050Z,56.46
2018-08-20T19:25:04.148Z,56.69
2018-08-20T19:27:36.109Z,56.89
2018-08-20T19:30:16.944Z,57.21
2018-08-20T19:33:01.742Z,57.25
2018-08-20T19:35:32.426Z,57.59
2018-08-20T19:38:03.004Z,58.22
2018-08-20T19:40:35.819Z,58.07
2018-08-20T19:43:08.904Z,58.57
2018-08-20T19:48:54.523Z,59.18
2018-08-20T19:51:30.046Z,59.04
2018-08-20T19:59:05.368Z,59.36
2018-08-20T20:01:35.959Z,59.82
2018-08-20T20:07:16.026Z,59.37
2018-08-20T20:12:58.069Z,60.46
2018-08-20T20:15:42.668Z,60.61
2018-08-20T20:18:13.172Z,61.09
2018-08-20T20:21:03.554Z,61.46
2018-08-20T20:23:35.110Z,61.58
2018-08-20T20:41:31.287Z,62.58
2018-08-20T20:46:58.589Z,62.81
2018-08-20T20:49:40.596Z,63.02
2018-08-20T20:52:30.668Z,63.46
2018-08-20T20:55:14.631Z,63.86
2018-08-20T21:04:02.669Z,63.92
2018-08-20T21:09:53.453Z,64.79
2018-08-20T21:12:34.932Z,64.52
2018-08-20T21:38:41.025Z,66.97
2018-08-20T21:41:24.912Z,67.20
2018-08-20T21:49:01.630Z,67.58
2018-08-20T21:51:46.247Z,68.47
2018-08-20T22:09:20.250Z,70.38
2018-08-20T22:11:56.806Z,70.38
2018-08-20T22:20:51.412Z,71.20
2018-08-20T22:57:30.813Z,72.09
2018-08-20T23:00:33.653Z,72.16
2018-08-20T23:03:08.202Z,72.50
2018-08-20T23:05:43.681Z,72.70
2018-08-20T23:08:18.929Z,72.90
2018-08-20T23:10:53.173Z,72.31
2018-08-20T23:13:27.664Z,72.73
2018-08-20T23:16:04.135Z,73.37
2018-08-20T23:18:40.362Z,73.24
2018-08-20T23:21:14.245Z,73.19
2018-08-20T23:23:44.661Z,73.45
2018-08-20T23:26:17.916Z,73.34
2018-08-20T23:29:09.191Z,73.78
2018-08-20T23:31:50.702Z,73.84
2018-08-20T23:34:21.798Z,74.11
2018-08-20T23:36:53.379Z,74.32
2018-08-20T23:39:24.342Z,74.53
2018-08-20T23:41:54.743Z,74.66
2018-08-20T23:44:25.931Z,75.20
2018-08-20T23:47:44.742Z,75.80
2018-08-20T23:50:15.888Z,75.99
2018-08-20T23:52:46.660Z,76.13
2018-08-20T23:55:16.733Z,76.35
2018-08-20T23:57:47.564Z,76.39
